createdAt,value
2018-04-16T00:07:28.000Z,50.007
2018-04-16T00:17:28.000Z,50.048
2018-04-16T00:27:28.000Z,50.13
2018-04-16T00:37:28.000Z,50.149
2018-04-16T00:47:28.000Z,50.135
2018-04-16T00:57:28.000Z,50.197
2018-04-16T01:07:28.000Z,50.237
2018-04-16T01:17:28.000Z,50.223
2018-04-16T01:27:28.000Z,50.276
2018-04-16T01:37:28.000Z,50.273
2018-04-16T01:47:28.000Z,50.356
2018-04-16T01:57:28.000Z,50.321
2018-04-16T02:07:28.000Z,50.339
2018-04-16T02:17:28.000Z,50.37
2018-04-16T02:27:28.000Z,50.378
2018-04-16T02:37:28.000Z,50.419
2018-04-16T02:47:29.000Z,50.427
2018-04-16T02:57:28.000Z,50.446
2018-04-16T03:07:28.000Z,50.475
2018-04-16T03:17:28.000Z,50.442
2018-04-16T03:27:28.000Z,50.481
2018-04-16T03:37:29.000Z,50.544
2018-04-16T03:47:28.000Z,50.617
2018-04-16T03:57:28.000Z,50.646
2018-04-16T04:07:28.000Z,50.655
2018-04-16T04:17:28.000Z,50.653
2018-04-16T04:27:28.000Z,50.693
2018-04-16T04:37:28.000Z,50.723
2018-04-16T04:47:28.000Z,50.72
2018-04-16T04:57:28.000Z,50.739
2018-04-16T05:07:28.000Z,50.706
2018-04-16T05:17:28.000Z,50.758
2018-04-16T05:27:28.000Z,50.756
2018-04-16T05:37:28.000Z,50.681
2018-04-16T05:47:28.000Z,50.669
2018-04-16T05:57:28.000Z,50.584
2018-04-16T06:07:28.000Z,50.521
2018-04-16T06:17:28.000Z,50.848
2018-04-16T06:27:28.000Z,50.801
2018-04-16T06:37:28.000Z,50.774
2018-04-16T06:47:28.000Z,50.712
2018-04-16T06:57:29.000Z,50.448
2018-04-16T07:07:29.000Z,50.335
2018-04-16T07:17:29.000Z,50.114
2018-04-16T07:27:29.000Z,50.025
2018-04-16T07:37:29.000Z,49.97
2018-04-16T07:47:29.000Z,49.764
2018-04-16T07:57:29.000Z,49.639
2018-04-16T08:07:29.000Z,49.344
2018-04-16T08:17:29.000Z,48.987
2018-04-16T08:27:29.000Z,48.79
2018-04-16T08:37:29.000Z,48.431
2018-04-16T08:47:29.000Z,48.466
2018-04-16T08:57:29.000Z,47.968
2018-04-16T09:07:29.000Z,47.909
2018-04-16T09:17:29.000Z,47.732
2018-04-16T09:27:29.000Z,47.636
2018-04-16T09:37:29.000Z,47.552
2018-04-16T09:47:29.000Z,47.381
2018-04-16T09:57:29.000Z,47.653
2018-04-16T10:07:29.000Z,47.853
2018-04-16T10:17:29.000Z,47.534
2018-04-16T10:27:29.000Z,47.325
2018-04-16T10:37:29.000Z,47.474
2018-04-16T10:47:29.000Z,47.509
2018-04-16T10:57:29.000Z,47.587
2018-04-16T11:07:29.000Z,47.696
2018-04-16T11:17:29.000Z,47.388
2018-04-16T11:27:29.000Z,47.731
2018-04-16T11:37:29.000Z,47.624
2018-04-16T11:47:29.000Z,47.068
2018-04-16T11:57:29.000Z,46.759
2018-04-16T12:07:29.000Z,47.221
2018-04-16T12:17:29.000Z,46.869
2018-04-16T12:27:29.000Z,46.795
2018-04-16T12:37:29.000Z,46.783
2018-04-16T12:47:29.000Z,47.139
2018-04-16T12:57:29.000Z,46.875
2018-04-16T13:07:29.000Z,46.984
2018-04-16T13:17:29.000Z,46.996
2018-04-16T13:27:29.000Z,47.072
2018-04-16T13:37:29.000Z,47.112
2018-04-16T13:47:29.000Z,46.618
2018-04-16T13:57:29.000Z,46.707
2018-04-16T14:07:29.000Z,46.933
2018-04-16T14:17:29.000Z,47.041
2018-04-16T14:27:29.000Z,47.042
2018-04-16T14:37:29.000Z,47.138
2018-04-16T14:47:29.000Z,47.561
2018-04-16T14:57:29.000Z,47.648
2018-04-16T15:07:29.000Z,47.771
2018-04-16T15:17:30.000Z,47.739
2018-04-16T15:27:30.000Z,47.561
2018-04-16T15:37:30.000Z,47.205
2018-04-16T15:47:30.000Z,47.246
2018-04-16T15:57:30.000Z,46.887
2018-04-16T16:07:30.000Z,47.364
2018-04-16T16:17:30.000Z,47.178
2018-04-16T16:27:30.000Z,44.489
2018-04-16T16:37:30.000Z,43.197
2018-04-16T16:47:30.000Z,43.291
2018-04-16T16:57:30.000Z,44.326
2018-04-16T17:07:30.000Z,44.357
2018-04-16T17:17:31.000Z,44.357
2018-04-16T17:27:30.000Z,44.434
2018-04-16T17:37:30.000Z,44.316
2018-04-16T17:47:30.000Z,44.257
2018-04-16T17:57:30.000Z,43.838
2018-04-16T18:07:30.000Z,43.716
2018-04-16T18:17:30.000Z,43.608
2018-04-16T18:27:30.000Z,43.659
2018-04-16T18:37:30.000Z,43.688
2018-04-16T18:47:30.000Z,43.967
2018-04-16T18:57:30.000Z,44.281
2018-04-16T19:07:30.000Z,44.397
2018-04-16T19:17:30.000Z,44.702
2018-04-16T19:27:30.000Z,45.028
2018-04-16T19:37:30.000Z,45.215
2018-04-16T19:47:30.000Z,45.369
2018-04-16T19:57:30.000Z,45.531
2018-04-16T20:07:30.000Z,45.665
2018-04-16T20:17:30.000Z,46.046
2018-04-16T20:17:40.000Z,46.057
2018-04-16T20:27:39.000Z,46.8
2018-04-16T20:37:39.000Z,47.045
2018-04-16T20:47:39.000Z,48.709
2018-04-16T20:57:39.000Z,48.717
2018-04-16T21:07:40.000Z,48.771
2018-04-16T21:17:40.000Z,48.88
2018-04-16T21:27:40.000Z,49.087
2018-04-16T21:37:40.000Z,48.902
2018-04-16T21:47:40.000Z,49.236
2018-04-16T21:57:40.000Z,49.37
2018-04-16T22:07:40.000Z,49.416
2018-04-16T22:17:40.000Z,49.464
2018-04-16T22:27:40.000Z,49.502
2018-04-16T22:37:42.000Z,49.519
2018-04-16T22:47:40.000Z,49.533
2018-04-16T22:57:40.000Z,49.528
2018-04-16T23:07:40.000Z,49.511
2018-04-16T23:17:40.000Z,49.582
2018-04-16T23:27:40.000Z,49.585
2018-04-16T23:37:48.000Z,49.548
2018-04-16T23:47:48.000Z,49.51
2018-04-16T23:57:48.000Z,49.559
